Caryville, Tennessee
Current Conditions -  °F | °C
As of 8:53 AM on Friday 19 Dec 2014 (Local Time) from KOQT Reporting Station
Clear Clear  
Wind Chill: 36°   Ceiling: Unl
Heat Index: 36°   Visibility: 10mi
Dew Point: 29°   Wind: 3mph
Humidity: 76%   Direction: 60°ENE
Pressure: 30.22"   Gusts: NA
Location:  36.3°N, 84.22°W
Report Text: KOQT 191353Z AUTO 06003KT 10SM CLR 02/M02 A3022 RMK AO2 SLP245 T00221017
Loading
Personal Weather Stations






























Interactive Weather Map New forecast layout! Learn more

10-Day Weather Forecast

Advertisements
Track Severe Weather on mobile